Time;durP1;ratioP1;P1;durP2;ratioP2;P2;SDS_P1;SDS_P2;PMS_P1;PMS_P2;Temp;Humidity;BMP_temperature;BMP_pressure;BME280_temperature;BME280_humidity;BME280_pressure;Samples;Min_cycle;Max_cycle;Signal;HPM_P1;HPM_P2
2023/01/04 00:01:45;;;;;;;2.90;0.65;;;;;;;;;;5073019;28;20033;-67
2023/01/04 00:04:11;;;;;;;1.00;0.68;;;;;;;;;;5073048;28;20028;-67
2023/01/04 00:06:38;;;;;;;3.15;1.23;;;;;;;;;;5072892;28;20029;-67
2023/01/04 00:09:05;;;;;;;0.70;0.45;;;;;;;;;;5067540;28;20024;-67
2023/01/04 00:11:31;;;;;;;0.70;0.38;;;;;;;;;;5066573;28;20032;-67
2023/01/04 00:13:58;;;;;;;0.88;0.65;;;;;;;;;;5067152;28;20045;-67
2023/01/04 00:16:26;;;;;;;2.03;0.95;;;;;;;;;;5067087;28;20544;-66
2023/01/04 00:18:53;;;;;;;1.53;0.83;;;;;;;;;;5071571;28;20036;-67
2023/01/04 00:21:22;;;;;;;1.83;0.90;;;;;;;;;;5072225;28;20028;-67
2023/01/04 00:23:49;;;;;;;1.03;0.60;;;;;;;;;;5072764;28;20560;-67
2023/01/04 00:26:20;;;;;;;1.20;0.70;;;;;;;;;;5071294;28;20036;-66
2023/01/04 00:28:47;;;;;;;5.43;1.57;;;;;;;;;;5072115;28;20029;-67
2023/01/04 00:31:15;;;;;;;10.90;1.77;;;;;;;;;;5067403;28;20028;-66
2023/01/04 00:33:42;;;;;;;13.20;1.97;;;;;;;;;;5066715;28;20375;-67
2023/01/04 00:36:12;;;;;;;1.23;0.97;;;;;;;;;;5067013;28;20024;-67
2023/01/04 00:38:39;;;;;;;1.23;0.77;;;;;;;;;;5066909;28;20501;-67
2023/01/04 00:41:06;;;;;;;10.63;1.47;;;;;;;;;;5071268;28;20095;-66
2023/01/04 00:43:33;;;;;;;1.83;1.00;;;;;;;;;;5072468;28;20025;-66
2023/01/04 00:46:00;;;;;;;4.53;0.77;;;;;;;;;;5072261;28;20418;-67
2023/01/04 00:48:27;;;;;;;0.70;0.40;;;;;;;;;;5072173;28;20017;-65
2023/01/04 00:50:54;;;;;;;2.20;1.20;;;;;;;;;;5072323;28;20107;-66
2023/01/04 00:53:21;;;;;;;3.33;1.03;;;;;;;;;;5067858;28;20024;-66
2023/01/04 00:55:48;;;;;;;1.63;1.10;;;;;;;;;;5066890;28;20033;-67
2023/01/04 00:58:14;;;;;;;4.03;0.93;;;;;;;;;;5066487;28;20487;-66
2023/01/04 01:00:41;;;;;;;0.70;0.50;;;;;;;;;;5066262;28;20444;-66
2023/01/04 01:03:08;;;;;;;1.13;0.63;;;;;;;;;;5069834;28;20067;-66
2023/01/04 01:05:35;;;;;;;1.87;1.13;;;;;;;;;;5052102;28;20471;-66
2023/01/04 01:08:23;;;;;;;1.07;0.70;;;;;;;;;;5051963;28;20055;-65
2023/01/04 01:10:49;;;;;;;0.30;0.30;;;;;;;;;;5051987;28;20090;-66
2023/01/04 01:13:16;;;;;;;0.87;0.60;;;;;;;;;;5052105;28;20032;-66
2023/01/04 01:15:42;;;;;;;0.67;0.43;;;;;;;;;;5047790;28;20036;-65
2023/01/04 01:18:09;;;;;;;0.57;0.43;;;;;;;;;;5046606;28;20025;-66
2023/01/04 01:20:41;;;;;;;2.17;0.90;;;;;;;;;;5046180;28;20540;-65
2023/01/04 01:23:08;;;;;;;1.33;0.90;;;;;;;;;;5046360;28;20021;-66
2023/01/04 01:25:34;;;;;;;1.80;1.03;;;;;;;;;;5050065;28;20035;-65
2023/01/04 01:28:01;;;;;;;21.47;1.20;;;;;;;;;;5051916;28;20035;-66
2023/01/04 01:30:27;;;;;;;2.70;0.93;;;;;;;;;;5062937;28;20036;-65
2023/01/04 01:32:54;;;;;;;13.70;1.37;;;;;;;;;;5073238;28;20520;-66
2023/01/04 01:35:21;;;;;;;1.40;1.00;;;;;;;;;;5075688;28;20068;-65
2023/01/04 01:37:47;;;;;;;2.87;1.20;;;;;;;;;;5072126;28;20074;-65
2023/01/04 01:40:14;;;;;;;1.83;0.87;;;;;;;;;;5070269;28;20107;-67
2023/01/04 01:42:41;;;;;;;4.63;1.80;;;;;;;;;;5070342;28;20147;-65
2023/01/04 01:45:22;;;;;;;4.53;1.50;;;;;;;;;;5070169;28;20433;-66
2023/01/04 01:47:49;;;;;;;2.07;1.10;;;;;;;;;;5073185;28;20025;-65
2023/01/04 01:50:25;;;;;;;3.93;1.93;;;;;;;;;;5075136;28;20017;-64
2023/01/04 01:52:54;;;;;;;1.50;0.70;;;;;;;;;;5075745;28;20108;-65
2023/01/04 01:55:21;;;;;;;2.30;1.10;;;;;;;;;;5075358;28;20440;-66
2023/01/04 01:57:48;;;;;;;0.93;0.70;;;;;;;;;;5075215;28;20413;-65
2023/01/04 02:00:15;;;;;;;6.90;2.87;;;;;;;;;;5071290;28;20028;-66
2023/01/04 02:02:45;;;;;;;3.50;1.63;;;;;;;;;;5069876;28;20016;-65
2023/01/04 02:05:12;;;;;;;2.73;1.47;;;;;;;;;;5069045;28;20028;-65
2023/01/04 02:07:39;;;;;;;21.07;1.90;;;;;;;;;;5069790;28;20485;-66
2023/01/04 02:10:06;;;;;;;2.23;1.47;;;;;;;;;;5072638;28;20056;-65
2023/01/04 02:12:33;;;;;;;3.47;1.40;;;;;;;;;;5074951;28;20031;-65
2023/01/04 02:15:00;;;;;;;2.33;1.17;;;;;;;;;;5075168;28;20020;-65
2023/01/04 02:17:45;;;;;;;11.30;2.23;;;;;;;;;;5075108;28;20050;-65
2023/01/04 02:20:11;;;;;;;5.20;1.23;;;;;;;;;;5074900;28;20433;-65
2023/01/04 02:22:56;;;;;;;2.63;1.10;;;;;;;;;;5070968;28;20021;-65
2023/01/04 02:25:26;;;;;;;4.38;1.98;;;;;;;;;;5069364;28;20029;-65
2023/01/04 02:28:09;;;;;;;3.27;1.57;;;;;;;;;;5069550;28;20475;-65
2023/01/04 02:30:36;;;;;;;13.33;2.17;;;;;;;;;;5068572;28;20051;-65
2023/01/04 02:33:09;;;;;;;2.20;1.37;;;;;;;;;;5072777;28;20122;-65
2023/01/04 02:35:46;;;;;;;3.90;1.90;;;;;;;;;;5074903;28;20103;-66
2023/01/04 02:38:44;;;;;;;3.47;2.00;;;;;;;;;;5074405;28;20025;-65
2023/01/04 02:41:17;;;;;;;10.57;2.70;;;;;;;;;;5061958;28;20043;-63
2023/01/04 02:47:00;;;;;;;2.83;1.07;;;;;;;;;;5063149;28;20505;-63
2023/01/04 02:52:12;;;;;;;;;;;;;;;;;;5069616;28;20079;-63
2023/01/04 02:54:39;;;;;;;5.00;1.90;;;;;;;;;;5070363;28;20261;-63
2023/01/04 02:57:25;;;;;;;4.43;1.63;;;;;;;;;;5073482;28;20024;-63
2023/01/04 03:00:05;;;;;;;1.53;0.83;;;;;;;;;;5074021;28;20111;-63
2023/01/04 03:08:30;;;;;;;4.73;1.83;;;;;;;;;;5068642;28;20128;-63
2023/01/04 03:14:16;;;;;;;5.77;1.83;;;;;;;;;;5048829;28;20044;-63
2023/01/04 03:16:42;;;;;;;;;;;;;;;;;;5070041;28;20055;-63
2023/01/04 03:19:11;;;;;;;2.23;1.40;;;;;;;;;;5074281;28;19923;-63
2023/01/04 03:21:40;;;;;;;3.40;1.53;;;;;;;;;;5073330;28;20024;-62
2023/01/04 03:36:08;;;;;;;3.28;1.98;;;;;;;;;;5066336;28;20387;-63
2023/01/04 03:50:09;;;;;;;2.23;1.47;;;;;;;;;;5070992;28;20047;-62
2023/01/04 03:52:36;;;;;;;6.93;1.50;;;;;;;;;;5066893;28;20032;-62
2023/01/04 03:55:04;;;;;;;1.80;1.10;;;;;;;;;;5060951;28;20029;-62
2023/01/04 03:57:32;;;;;;;2.50;1.33;;;;;;;;;;5066658;28;20028;-63
2023/01/04 04:00:03;;;;;;;1.93;1.17;;;;;;;;;;5066577;28;20398;-62
2023/01/04 04:02:31;;;;;;;2.17;1.33;;;;;;;;;;5072057;28;20468;-63
2023/01/04 04:10:28;;;;;;;1.27;0.80;;;;;;;;;;5072772;28;20094;-62
2023/01/04 04:12:54;;;;;;;2.43;1.13;;;;;;;;;;5067720;28;20025;-62
2023/01/04 04:15:21;;;;;;;1.50;0.93;;;;;;;;;;5047533;28;20021;-62
2023/01/04 04:17:48;;;;;;;3.93;1.33;;;;;;;;;;5047752;28;20025;-63
2023/01/04 04:20:14;;;;;;;1.23;0.90;;;;;;;;;;5055364;28;20033;-63
2023/01/04 04:22:41;;;;;;;1.63;1.00;;;;;;;;;;5067326;28;20023;-62
2023/01/04 04:25:08;;;;;;;2.20;1.33;;;;;;;;;;5072675;28;20109;-62
2023/01/04 04:27:35;;;;;;;2.60;1.17;;;;;;;;;;5072617;28;20438;-64
2023/01/04 04:30:01;;;;;;;1.77;1.23;;;;;;;;;;5072000;28;20020;-62
2023/01/04 04:32:28;;;;;;;4.70;1.03;;;;;;;;;;5072539;28;20438;-62
2023/01/04 04:34:55;;;;;;;1.47;0.60;;;;;;;;;;5072604;28;20494;-63
2023/01/04 04:37:22;;;;;;;2.90;1.60;;;;;;;;;;5067275;28;20108;-63
2023/01/04 04:39:48;;;;;;;0.90;0.63;;;;;;;;;;5066997;28;20115;-62
2023/01/04 04:42:15;;;;;;;1.17;0.70;;;;;;;;;;5066927;28;20020;-62
2023/01/04 04:44:42;;;;;;;1.60;1.00;;;;;;;;;;5067114;28;20082;-62
2023/01/04 04:47:08;;;;;;;4.90;1.27;;;;;;;;;;5051561;28;20387;-62
2023/01/04 04:49:35;;;;;;;1.73;0.37;;;;;;;;;;5054364;28;20060;-62
2023/01/04 04:52:02;;;;;;;1.20;0.90;;;;;;;;;;5072273;28;20028;-63
2023/01/04 04:54:29;;;;;;;0.50;0.40;;;;;;;;;;5072402;28;20029;-63
2023/01/04 04:56:55;;;;;;;1.03;0.60;;;;;;;;;;5072466;28;20029;-62
2023/01/04 04:59:22;;;;;;;1.53;0.57;;;;;;;;;;5066470;28;20479;-62
2023/01/04 05:01:49;;;;;;;0.57;0.57;;;;;;;;;;5065090;28;20020;-62
2023/01/04 05:04:18;;;;;;;0.40;0.40;;;;;;;;;;5056952;28;20033;-62
2023/01/04 05:06:48;;;;;;;1.23;0.73;;;;;;;;;;5046308;28;20479;-63
2023/01/04 05:09:15;;;;;;;0.27;0.27;;;;;;;;;;5065508;28;20414;-63
2023/01/04 05:14:27;;;;;;;0.70;0.27;;;;;;;;;;5072161;28;20082;-62
2023/01/04 05:16:54;;;;;;;2.40;1.10;;;;;;;;;;5071725;28;20029;-63
2023/01/04 05:19:21;;;;;;;2.90;0.73;;;;;;;;;;5070172;28;20039;-62
2023/01/04 05:21:48;;;;;;;0.20;0.13;;;;;;;;;;5066704;28;20506;-62
2023/01/04 16:38:49;;;;;;;2.13;1.17;;;;;;;;;;5087862;27;2339598;-64
2023/01/04 16:41:17;;;;;;;3.23;1.47;;;;;;;;;;5124451;28;20495;-64
2023/01/04 16:43:45;;;;;;;1.43;1.10;;;;;;;;;;5124524;27;20019;-64
2023/01/04 16:46:29;;;;;;;5.83;2.17;;;;;;;;;;5124430;28;20565;-64
2023/01/04 16:48:57;;;;;;;7.03;1.80;;;;;;;;;;5125242;27;20072;-66
2023/01/04 16:51:25;;;;;;;4.93;2.60;;;;;;;;;;5130183;27;20024;-65
2023/01/04 16:53:52;;;;;;;0.83;0.67;;;;;;;;;;5130314;27;20031;-65
2023/01/04 16:56:20;;;;;;;1.97;0.80;;;;;;;;;;5130057;28;20079;-64
2023/01/04 16:58:47;;;;;;;1.17;0.73;;;;;;;;;;5130280;28;20042;-64
2023/01/04 17:01:15;;;;;;;5.57;1.00;;;;;;;;;;5128227;28;20042;-65
2023/01/04 17:03:43;;;;;;;1.13;0.70;;;;;;;;;;5124080;28;20469;-64
2023/01/04 17:06:11;;;;;;;12.43;1.20;;;;;;;;;;5124424;28;20024;-65
2023/01/04 17:08:38;;;;;;;0.57;0.53;;;;;;;;;;5124608;28;20273;-64
2023/01/04 17:11:10;;;;;;;1.03;0.60;;;;;;;;;;5125406;27;20094;-64
2023/01/04 17:13:36;;;;;;;0.73;0.53;;;;;;;;;;5127185;28;20051;-66
2023/01/04 17:16:04;;;;;;;3.80;1.20;;;;;;;;;;5129119;28;20016;-65
2023/01/04 17:18:31;;;;;;;2.80;0.93;;;;;;;;;;5128985;28;20016;-67
2023/01/04 17:20:59;;;;;;;1.80;1.30;;;;;;;;;;5130133;27;20030;-65
2023/01/04 17:23:27;;;;;;;1.40;0.90;;;;;;;;;;5117052;27;20106;-66
2023/01/04 17:25:54;;;;;;;4.60;1.00;;;;;;;;;;5140234;27;20023;-67
2023/01/04 17:28:21;;;;;;;1.93;0.73;;;;;;;;;;5125868;27;20489;-65
2023/01/04 17:30:47;;;;;;;2.57;1.33;;;;;;;;;;5123799;28;20099;-63
2023/01/04 17:33:14;;;;;;;1.27;0.63;;;;;;;;;;5125039;27;20019;-64
2023/01/04 17:35:41;;;;;;;5.63;1.30;;;;;;;;;;5128799;28;20027;-63
2023/01/04 17:38:08;;;;;;;3.33;1.17;;;;;;;;;;5134094;27;20491;-65
2023/01/04 17:40:34;;;;;;;20.92;1.30;;;;;;;;;;5111373;27;20056;-64
2023/01/04 17:43:01;;;;;;;1.20;0.70;;;;;;;;;;5134339;27;20023;-64
2023/01/04 17:45:29;;;;;;;1.88;1.00;;;;;;;;;;5114333;28;20034;-65
2023/01/04 17:47:56;;;;;;;1.15;0.70;;;;;;;;;;5110090;28;20470;-65
2023/01/04 17:50:22;;;;;;;1.77;0.95;;;;;;;;;;5109681;27;20057;-65
2023/01/04 17:52:49;;;;;;;0.80;0.70;;;;;;;;;;5125340;27;20031;-64
2023/01/04 17:55:17;;;;;;;1.33;0.77;;;;;;;;;;5129650;27;20440;-65
2023/01/04 17:57:44;;;;;;;1.48;1.02;;;;;;;;;;5119710;27;20028;-64
2023/01/04 18:00:13;;;;;;;9.07;1.02;;;;;;;;;;5134220;27;20131;-64
2023/01/04 18:02:41;;;;;;;1.08;0.70;;;;;;;;;;5135750;27;20030;-67
2023/01/04 18:05:08;;;;;;;2.45;1.20;;;;;;;;;;5120840;27;20027;-63
2023/01/04 18:07:35;;;;;;;1.30;0.98;;;;;;;;;;5114308;28;20521;-66
2023/01/04 18:10:02;;;;;;;1.65;0.93;;;;;;;;;;5109692;28;20059;-65
2023/01/04 18:12:29;;;;;;;1.13;0.73;;;;;;;;;;5109865;28;20409;-64
2023/01/04 18:14:56;;;;;;;1.70;0.95;;;;;;;;;;5127182;27;20419;-64
2023/01/04 18:17:23;;;;;;;1.65;0.95;;;;;;;;;;5130265;27;20117;-64
2023/01/04 18:19:50;;;;;;;5.05;1.15;;;;;;;;;;5135360;27;20015;-66
2023/01/04 18:22:16;;;;;;;1.10;0.77;;;;;;;;;;5117118;27;20053;-64
2023/01/04 18:24:43;;;;;;;3.55;0.82;;;;;;;;;;5116743;27;20019;-63
2023/01/04 18:27:12;;;;;;;2.10;0.75;;;;;;;;;;5115592;27;20015;-65
2023/01/04 18:29:38;;;;;;;1.27;0.68;;;;;;;;;;5118376;27;20035;-65
2023/01/04 18:32:05;;;;;;;1.13;0.73;;;;;;;;;;5112158;27;20031;-64
2023/01/04 18:34:32;;;;;;;1.88;1.00;;;;;;;;;;5109565;28;20019;-64
2023/01/04 18:36:58;;;;;;;2.55;1.50;;;;;;;;;;5109462;28;20035;-63
2023/01/04 18:39:25;;;;;;;1.65;1.15;;;;;;;;;;5108740;28;20501;-63
2023/01/04 18:41:52;;;;;;;3.55;1.67;;;;;;;;;;5118297;27;20034;-64
2023/01/04 18:44:20;;;;;;;1.75;0.90;;;;;;;;;;5117991;27;20024;-64
2023/01/04 18:46:47;;;;;;;1.40;0.85;;;;;;;;;;5093874;28;20416;-64
2023/01/04 18:49:13;;;;;;;0.80;0.60;;;;;;;;;;5093905;28;20039;-64
2023/01/04 18:51:40;;;;;;;1.70;0.90;;;;;;;;;;5093114;28;20114;-64
2023/01/04 18:54:07;;;;;;;3.63;1.10;;;;;;;;;;5087304;28;20058;-63
2023/01/04 18:56:33;;;;;;;2.22;1.10;;;;;;;;;;5124001;27;20499;-64
2023/01/04 18:59:00;;;;;;;2.20;1.05;;;;;;;;;;5129698;27;20505;-64
2023/01/04 19:01:30;;;;;;;5.22;1.13;;;;;;;;;;5129105;27;20015;-64
2023/01/04 19:03:56;;;;;;;1.23;0.90;;;;;;;;;;5133863;27;20031;-63
2023/01/04 19:06:23;;;;;;;2.00;0.80;;;;;;;;;;5117957;27;20016;-65
2023/01/04 19:08:51;;;;;;;4.20;1.30;;;;;;;;;;5114895;27;20023;-65
2023/01/04 19:11:18;;;;;;;1.48;0.82;;;;;;;;;;5113444;28;20047;-64
2023/01/04 19:13:46;;;;;;;3.40;0.90;;;;;;;;;;5128487;27;20107;-64
2023/01/04 19:16:13;;;;;;;2.88;1.38;;;;;;;;;;5129289;27;20034;-63
2023/01/04 19:18:40;;;;;;;1.02;0.80;;;;;;;;;;5128785;27;20027;-65
2023/01/04 19:21:07;;;;;;;1.90;0.80;;;;;;;;;;5119042;27;20019;-64
2023/01/04 19:23:34;;;;;;;3.55;0.63;;;;;;;;;;5108352;28;20385;-64
2023/01/04 19:26:04;;;;;;;1.85;0.85;;;;;;;;;;5112378;28;20034;-63
2023/01/04 19:28:31;;;;;;;0.82;0.73;;;;;;;;;;5113611;28;20024;-65
2023/01/04 19:30:58;;;;;;;0.52;0.50;;;;;;;;;;5105493;27;20031;-63
2023/01/04 19:33:24;;;;;;;1.08;0.75;;;;;;;;;;5111346;27;20084;-63
2023/01/04 19:35:51;;;;;;;2.72;1.23;;;;;;;;;;5133930;27;20088;-64
2023/01/04 19:38:18;;;;;;;0.88;0.60;;;;;;;;;;5129178;27;20500;-63
2023/01/04 19:40:45;;;;;;;1.42;0.75;;;;;;;;;;5120578;27;20027;-63
2023/01/04 19:43:12;;;;;;;2.45;1.00;;;;;;;;;;5107567;28;20026;-63
2023/01/04 19:45:40;;;;;;;1.30;0.80;;;;;;;;;;5107944;28;20024;-63
2023/01/04 19:48:07;;;;;;;1.10;0.90;;;;;;;;;;5111754;28;20032;-63
2023/01/04 19:50:33;;;;;;;2.55;1.23;;;;;;;;;;5119124;27;20023;-63
2023/01/04 19:53:00;;;;;;;2.15;1.20;;;;;;;;;;5133199;27;20079;-63
2023/01/04 19:55:28;;;;;;;1.13;0.75;;;;;;;;;;5133614;27;20023;-63
2023/01/04 19:57:55;;;;;;;1.50;1.00;;;;;;;;;;5131660;27;20054;-63
2023/01/04 20:00:23;;;;;;;1.58;1.00;;;;;;;;;;5129514;27;20020;-63
2023/01/04 20:02:49;;;;;;;1.50;0.80;;;;;;;;;;5109092;27;20043;-63
2023/01/04 20:05:16;;;;;;;5.30;1.02;;;;;;;;;;5101512;28;20031;-64
2023/01/04 20:07:43;;;;;;;2.10;1.20;;;;;;;;;;5090719;28;20095;-63
2023/01/04 20:10:10;;;;;;;1.58;0.98;;;;;;;;;;5091339;28;20485;-65
2023/01/04 20:12:42;;;;;;;3.10;1.20;;;;;;;;;;5120459;27;20098;-65
2023/01/04 20:15:09;;;;;;;3.45;1.20;;;;;;;;;;5130397;27;20031;-65
2023/01/04 20:17:36;;;;;;;0.60;0.60;;;;;;;;;;5112291;28;21359;-63
2023/01/04 20:20:03;;;;;;;0.98;0.77;;;;;;;;;;5099909;28;20032;-62
2023/01/04 20:22:32;;;;;;;1.05;0.80;;;;;;;;;;5089142;28;20489;-63
2023/01/04 20:24:58;;;;;;;15.20;1.08;;;;;;;;;;5087609;28;20026;-63
2023/01/04 20:27:25;;;;;;;4.00;1.33;;;;;;;;;;5086891;28;20024;-63
2023/01/04 20:29:52;;;;;;;7.20;0.88;;;;;;;;;;5087278;28;20024;-63
2023/01/04 20:32:19;;;;;;;1.58;0.82;;;;;;;;;;5089545;28;20028;-64
2023/01/04 20:34:46;;;;;;;0.68;0.57;;;;;;;;;;5091878;28;20470;-63
2023/01/04 20:37:13;;;;;;;13.65;1.20;;;;;;;;;;5098305;28;20032;-63
2023/01/04 20:39:40;;;;;;;2.50;0.90;;;;;;;;;;5106600;28;20103;-63
2023/01/04 20:44:53;;;;;;;1.20;0.82;;;;;;;;;;5114151;28;20069;-64
2023/01/04 20:47:20;;;;;;;2.58;1.17;;;;;;;;;;5107937;28;20038;-63
2023/01/04 20:49:47;;;;;;;0.98;0.63;;;;;;;;;;5109388;28;20022;-64
2023/01/04 20:52:14;;;;;;;1.63;0.90;;;;;;;;;;5120444;28;20485;-64
2023/01/04 20:54:42;;;;;;;4.82;0.90;;;;;;;;;;5121299;28;20111;-65
2023/01/04 20:57:09;;;;;;;2.70;1.17;;;;;;;;;;5124952;28;20100;-64
2023/01/04 20:59:36;;;;;;;1.17;0.68;;;;;;;;;;5117469;28;20380;-62
2023/01/04 21:02:03;;;;;;;1.25;0.80;;;;;;;;;;5121530;28;20027;-63
2023/01/04 21:04:31;;;;;;;1.25;0.90;;;;;;;;;;5123548;28;20035;-64
2023/01/04 21:06:58;;;;;;;2.92;1.33;;;;;;;;;;5128283;28;20026;-63
2023/01/04 21:09:25;;;;;;;1.60;0.90;;;;;;;;;;5123133;28;20036;-63
2023/01/04 21:11:52;;;;;;;2.25;0.93;;;;;;;;;;5098669;28;20053;-63
2023/01/04 21:14:19;;;;;;;1.15;0.70;;;;;;;;;;5109100;28;20100;-65
2023/01/04 21:16:49;;;;;;;1.65;0.75;;;;;;;;;;5112617;28;20038;-64
2023/01/04 21:19:16;;;;;;;2.75;0.90;;;;;;;;;;5115887;28;20100;-64
2023/01/04 21:21:44;;;;;;;3.20;0.85;;;;;;;;;;5115662;28;20390;-66
2023/01/04 21:24:11;;;;;;;1.73;0.57;;;;;;;;;;5115733;28;20116;-64
2023/01/04 21:26:38;;;;;;;0.70;0.63;;;;;;;;;;5113642;28;20012;-65
2023/01/04 21:29:05;;;;;;;11.18;0.80;;;;;;;;;;5112819;27;20575;-65
2023/01/04 21:31:32;;;;;;;0.70;0.60;;;;;;;;;;5109196;28;20031;-65
2023/01/04 21:34:00;;;;;;;1.05;0.73;;;;;;;;;;5108913;28;20023;-65
2023/01/04 21:36:27;;;;;;;0.85;0.70;;;;;;;;;;5112188;27;20032;-65
2023/01/04 21:38:56;;;;;;;1.83;0.82;;;;;;;;;;5112015;27;20035;-66
2023/01/04 21:41:24;;;;;;;1.20;0.70;;;;;;;;;;5115760;28;20031;-65
2023/01/04 21:43:52;;;;;;;19.92;1.40;;;;;;;;;;5115645;28;20072;-65
2023/01/04 21:46:19;;;;;;;2.28;0.90;;;;;;;;;;5115495;28;20089;-66
2023/01/04 21:48:46;;;;;;;8.80;0.98;;;;;;;;;;5128521;27;20015;-66
2023/01/04 21:51:14;;;;;;;1.65;0.55;;;;;;;;;;5132913;27;20019;-66
2023/01/04 21:53:42;;;;;;;15.55;1.55;;;;;;;;;;5130050;27;20471;-64
2023/01/04 21:56:11;;;;;;;1.50;0.65;;;;;;;;;;5119401;27;20031;-65
2023/01/04 21:58:38;;;;;;;1.25;0.55;;;;;;;;;;5110923;27;20035;-65
2023/01/04 22:01:16;;;;;;;1.55;0.50;;;;;;;;;;5126693;27;20020;-66
2023/01/04 22:03:43;;;;;;;1.98;0.80;;;;;;;;;;5135729;27;20098;-66
2023/01/04 22:06:12;;;;;;;1.33;0.73;;;;;;;;;;5135583;27;20069;-66
2023/01/04 22:08:45;;;;;;;2.47;0.73;;;;;;;;;;5135299;27;20019;-65
2023/01/04 22:11:13;;;;;;;1.45;0.57;;;;;;;;;;5126330;27;20027;-65
2023/01/04 22:13:40;;;;;;;2.53;0.77;;;;;;;;;;5133950;27;20015;-65
2023/01/04 22:16:08;;;;;;;2.50;1.10;;;;;;;;;;5130265;27;20019;-66
2023/01/04 22:18:35;;;;;;;1.35;0.60;;;;;;;;;;5129893;27;20055;-65
2023/01/04 22:21:03;;;;;;;1.02;0.52;;;;;;;;;;5128375;27;20023;-65
2023/01/04 22:23:30;;;;;;;2.03;0.38;;;;;;;;;;5130094;27;20047;-66
2023/01/04 22:25:58;;;;;;;1.65;0.90;;;;;;;;;;5134997;27;20030;-66
2023/01/04 22:28:25;;;;;;;0.82;0.45;;;;;;;;;;5135352;27;20051;-65
2023/01/04 22:30:53;;;;;;;0.85;0.50;;;;;;;;;;5129609;27;20028;-66
2023/01/04 22:33:20;;;;;;;1.40;0.60;;;;;;;;;;5114806;28;20058;-66
2023/01/04 22:35:47;;;;;;;0.82;0.40;;;;;;;;;;5113739;28;20027;-66
2023/01/04 22:38:14;;;;;;;1.10;0.60;;;;;;;;;;5108977;28;20078;-65
2023/01/04 22:40:42;;;;;;;1.23;0.60;;;;;;;;;;5112159;27;20027;-65
2023/01/04 22:43:09;;;;;;;1.13;0.55;;;;;;;;;;5129460;27;20033;-65
2023/01/04 22:45:36;;;;;;;0.63;0.43;;;;;;;;;;5129509;27;20473;-65
2023/01/04 22:48:02;;;;;;;0.55;0.50;;;;;;;;;;5134959;27;20035;-66
2023/01/04 22:50:29;;;;;;;0.80;0.60;;;;;;;;;;5132677;27;20027;-64
2023/01/04 22:52:56;;;;;;;1.45;0.63;;;;;;;;;;5114217;27;20028;-64
2023/01/04 22:55:23;;;;;;;1.55;0.70;;;;;;;;;;5114171;28;20023;-64
2023/01/04 22:57:49;;;;;;;0.55;0.52;;;;;;;;;;5113427;28;20099;-65
2023/01/04 23:00:16;;;;;;;2.75;0.85;;;;;;;;;;5108780;28;20023;-65
2023/01/04 23:02:43;;;;;;;3.15;0.93;;;;;;;;;;5129114;27;20038;-64
2023/01/04 23:05:10;;;;;;;0.50;0.50;;;;;;;;;;5129342;27;20027;-64
2023/01/04 23:07:37;;;;;;;1.40;0.63;;;;;;;;;;5129543;27;20027;-64
2023/01/04 23:10:03;;;;;;;0.50;0.32;;;;;;;;;;5130894;27;20023;-65
2023/01/04 23:12:30;;;;;;;1.38;0.50;;;;;;;;;;5114940;27;20042;-66
2023/01/04 23:14:58;;;;;;;1.95;0.85;;;;;;;;;;5113577;27;20051;-65
2023/01/04 23:17:25;;;;;;;2.45;0.98;;;;;;;;;;5112112;28;20039;-65
2023/01/04 23:19:52;;;;;;;1.42;0.85;;;;;;;;;;5113522;28;20063;-65
2023/01/04 23:22:18;;;;;;;3.25;0.68;;;;;;;;;;5124875;27;20027;-64
2023/01/04 23:24:45;;;;;;;5.47;1.17;;;;;;;;;;5129234;27;20094;-65
2023/01/04 23:27:12;;;;;;;0.63;0.47;;;;;;;;;;5128586;27;20098;-65
2023/01/04 23:29:39;;;;;;;1.75;1.13;;;;;;;;;;5128754;27;20019;-64
2023/01/04 23:32:05;;;;;;;2.90;1.15;;;;;;;;;;5122836;27;20019;-64
2023/01/04 23:34:32;;;;;;;1.38;0.80;;;;;;;;;;5114830;27;20421;-62
2023/01/04 23:36:59;;;;;;;2.80;0.88;;;;;;;;;;5112717;28;20020;-62
2023/01/04 23:39:26;;;;;;;1.00;0.68;;;;;;;;;;5113308;28;20035;-63
2023/01/04 23:41:52;;;;;;;1.40;0.75;;;;;;;;;;5113418;28;20098;-62
2023/01/04 23:44:20;;;;;;;0.60;0.57;;;;;;;;;;5109163;28;20080;-61
2023/01/04 23:47:00;;;;;;;1.27;0.80;;;;;;;;;;5107036;28;20420;-63
2023/01/04 23:49:28;;;;;;;0.50;0.50;;;;;;;;;;5107789;28;20027;-65
2023/01/04 23:51:55;;;;;;;4.03;0.97;;;;;;;;;;5107798;28;20416;-65
2023/01/04 23:54:22;;;;;;;0.87;0.43;;;;;;;;;;5111754;28;20023;-64
2023/01/04 23:56:49;;;;;;;1.10;0.70;;;;;;;;;;5112948;28;20028;-63
2023/01/04 23:59:16;;;;;;;1.93;0.80;;;;;;;;;;5123252;27;20464;-64
